Airfield :
LOGIN :

Register | Disclaimer

   EN    FR    IT 

 










Legend :    VFR   Marginal VFR   IFR   Intensive IFR   Very Intensive IFR
Visi :
Ceiling :
>= 8 km
>= 3000ft
5 to 8 km
1000 to 3000 ft
1500m to 5 km
500 to 1000 ft
800 to 1500m
200 to 500 ft
< 800m
< 200 ft
Symbols :   Thunderstorms  Fog  Heavy snow  Heavy precipitations  Wind > 20 kt
SIGMETs :     Misc.  Thunderstorms  Icing  Turbulence  Mountain Waves  Volcanic Ashes






- Airport Elevation : 124 ft
- IATA code : RNS


LFRN - Rennes

CURRENT METAR :
  • 240630Z AUTO VRB01KT 8000 BKN011 BKN023 OVC050 08/08 Q1019 TEMPO 4000 -RA

EXPIRED METARs :
  • 240600Z AUTO 21001KT 6000 FEW023 BKN052 OVC066 08/07 Q1019 TEMPO 4000 -RA BKN012
  • 240530Z AUTO 26002KT 6000 NSC 07/07 Q1019 TEMPO 4000 -RA BKN012
  • 240500Z AUTO 00000KT 6000 NSC 07/07 Q1019 TEMPO 0500 FG VV///
  • 240430Z AUTO 28002KT 6000 NSC 07/07 Q1019 TEMPO 0500 FG VV///
  • 240400Z AUTO 27003KT 6000 NSC 07/07 Q1019 TEMPO 0500 FG VV///
  • 240330Z AUTO 28003KT 5000 BR NSC 07/07 Q1019 TEMPO 0500 FG VV///
  • 240300Z AUTO 27003KT 5000 BR NSC 07/07 Q1020 TEMPO 0500 FG VV///
  • 240230Z AUTO 27003KT 4700 BR FEW004 BKN058 BKN070 07/06 Q1020 TEMPO 0500 FG VV///
  • 240200Z AUTO VRB02KT 4400 BR NSC 07/07 Q1020 TEMPO 0500 FG VV///

TAF TAF LFRN
Valid from the 24 at 06:00 until the 25 at 06:00 UTC


240500Z 2406/2506 VRB05KT 9999 BKN030
PROB40
TEMPO 2406/2407 3000 BR
PROB40
TEMPO 2406/2409 4000 -RA BKN012
PROB40
TEMPO 2409/2418 4000 SHRA SCT025TCU
PROB40
TEMPO 2422/2506 3000 BR
PROB30
TEMPO 2503/2506 0500 FG VV///
ATIS : +33 2 99 67 72 50



MET'MAP, your aeronautical weather chart ! - Copyright ORBIFLY December 2007 - Disclaimer

ORBIFLY MET'MAP TEAM :

Programming & Development : Alexandra Zaïnal
Original concept : Baudouin d'Aumeries
Technical & hardware support : Manuel Goepfert
Assistance : Marc-Olivier Méhu




SOURCES & CREDITS :

   NOAA